Weather at Eslöv Airfield

Public forecast

Using degrees Celsius for public forecast. Weather courtesy of forecast.io.

Closest aviation weather report (METAR) to Eslöv Airfield

Closest report is Ljungbyhed Airfield, 14.6 nm (27.1 km) NNW.

2024/05/18 22:50 (retrieved 31 minutes ago)

ESTL 182250Z AUTO 09004KT 9999 NCD 10/06 Q1014

Closest aviation forecast (TAF) to Eslöv Airfield

Closest forecast is Malmö Sturup Airport, 18.0 nm (33.4 km) S.

2024/05/18 21:36 (retrieved 2 hours ago)

TAF ESMS 182009Z 1821/1921 07008KT CAVOK PROB40 1906/1910 SCT050CB TEMPO 1910/1915 SHRA SCT050CB